Time;durP1;ratioP1;P1;durP2;ratioP2;P2;SDS_P1;SDS_P2;PMS_P1;PMS_P2;Temp;Humidity;BMP_temperature;BMP_pressure;BME280_temperature;BME280_humidity;BME280_pressure;Samples;Min_cycle;Max_cycle;Signal;HPM_P1;HPM_P2
2022/11/15 00:00:51;;;;;;;14.10;11.30;;;;;;;-142.65;86.49;50174.75;5113921;28;20179;-70
2022/11/15 00:03:36;;;;;;;12.03;11.10;;;;;;;-142.65;86.58;50172.78;5113911;28;20225;-70
2022/11/15 00:06:21;;;;;;;12.07;10.93;;;;;;;;;;5114050;28;20792;-70
2022/11/15 00:09:06;;;;;;;13.23;11.93;;;;;;;-142.65;86.82;50170.78;5114139;28;20652;-70
2022/11/15 00:11:51;;;;;;;15.53;11.80;;;;;;;-142.65;86.74;50182.72;5114133;28;20181;-70
2022/11/15 00:14:36;;;;;;;12.17;11.07;;;;;;;-142.65;86.90;50170.78;5114067;28;20175;-70
2022/11/15 00:17:21;;;;;;;12.80;11.53;;;;;;;-142.65;86.98;50172.78;5114034;28;20183;-70
2022/11/15 00:20:07;;;;;;;11.80;10.13;;;;;;;-142.65;86.99;50174.75;5113948;28;20181;-70
2022/11/15 00:22:52;;;;;;;11.03;10.23;;;;;;;-142.65;87.24;50174.75;5113622;28;20694;-70
2022/11/15 00:25:36;;;;;;;16.60;11.60;;;;;;;-142.65;87.28;50174.75;5113567;28;20269;-70
2022/11/15 00:28:21;;;;;;;11.37;10.47;;;;;;;-142.65;87.42;50168.78;5113972;28;20238;-70
2022/11/15 00:31:11;;;;;;;12.37;11.23;;;;;;;-142.65;87.55;50178.75;5113373;28;20182;-70
2022/11/15 00:33:55;;;;;;;11.43;10.23;;;;;;;-142.65;87.80;50170.78;5113781;28;20212;-70
2022/11/15 00:36:40;;;;;;;15.67;10.20;;;;;;;-142.65;88.14;50176.75;5113348;28;20173;-70
2022/11/15 00:39:25;;;;;;;12.90;10.57;;;;;;;-142.65;88.58;50174.75;5115612;28;20197;-70
2022/11/15 00:42:10;;;;;;;11.37;10.27;;;;;;;-142.65;89.48;50172.78;5117578;28;20286;-71
2022/11/15 00:44:55;;;;;;;13.20;10.80;;;;;;;-142.65;89.85;50178.75;5117705;28;20234;-70
2022/11/15 00:47:39;;;;;;;13.70;10.37;;;;;;;-142.65;89.97;50168.78;5117307;28;20208;-70
2022/11/15 00:50:24;;;;;;;9.40;8.80;;;;;;;-142.65;90.53;50174.75;5117239;28;20569;-70
2022/11/15 00:53:10;;;;;;;9.47;8.87;;;;;;;-142.65;90.81;50164.81;5116980;28;20212;-70
2022/11/15 00:55:55;;;;;;;9.93;9.27;;;;;;;-142.65;91.82;50170.78;5117372;28;20183;-70
2022/11/15 00:58:40;;;;;;;10.97;9.77;;;;;;;-142.65;91.68;50170.78;5116805;28;20181;-70
2022/11/15 01:01:24;;;;;;;9.73;9.13;;;;;;;-142.65;91.76;50170.78;5117238;28;20218;-70
2022/11/15 01:04:09;;;;;;;9.40;8.87;;;;;;;-142.65;91.84;50172.78;5116643;28;20262;-70
2022/11/15 01:06:54;;;;;;;12.57;9.70;;;;;;;-142.65;91.82;50176.75;5117009;28;20262;-70
2022/11/15 01:09:39;;;;;;;8.93;8.33;;;;;;;-142.65;92.03;50172.78;5117386;28;20180;-70
2022/11/15 01:12:24;;;;;;;10.53;9.73;;;;;;;-142.65;91.94;50168.78;5116932;28;20759;-70
2022/11/15 01:15:09;;;;;;;9.67;8.90;;;;;;;-142.65;92.01;50170.78;5116803;28;20207;-69
2022/11/15 01:17:54;;;;;;;9.43;8.67;;;;;;;-142.65;92.00;50174.75;5116959;28;20552;-69
2022/11/15 01:20:43;;;;;;;12.03;10.43;;;;;;;-142.65;92.00;50168.78;5116920;28;20180;-69
2022/11/15 01:23:28;;;;;;;12.97;10.90;;;;;;;;;;5116942;28;20709;-70
2022/11/15 01:26:15;;;;;;;9.37;8.47;;;;;;;-142.65;91.44;50172.78;5116209;28;20723;-71
2022/11/15 01:29:00;;;;;;;9.77;8.80;;;;;;;-142.65;91.60;50170.78;5116735;28;20261;-71
2022/11/15 01:31:44;;;;;;;13.00;9.77;;;;;;;-142.65;91.54;50178.75;5116335;28;20654;-71
2022/11/15 01:34:29;;;;;;;11.03;9.87;;;;;;;;;;5116345;28;20188;-71
2022/11/15 01:37:14;;;;;;;10.40;9.50;;;;;;;;;;5116289;28;20169;-71
2022/11/15 01:39:58;;;;;;;11.10;9.43;;;;;;;;;;5116604;28;20189;-71
2022/11/15 01:42:43;;;;;;;9.33;8.40;;;;;;;-142.65;91.27;50168.78;5116153;28;20227;-70
2022/11/15 01:45:28;;;;;;;11.07;10.07;;;;;;;-142.65;91.19;50172.78;5116161;28;20652;-70
2022/11/15 01:48:13;;;;;;;8.90;8.20;;;;;;;-142.65;90.46;50170.78;5116424;28;20696;-70
2022/11/15 01:50:59;;;;;;;17.97;10.10;;;;;;;;;;5115846;28;20176;-70
2022/11/15 01:53:47;;;;;;;9.57;8.70;;;;;;;;;;5116287;28;20220;-70
2022/11/15 01:56:35;;;;;;;10.17;9.13;;;;;;;;;;5115972;28;20542;-70
2022/11/15 01:59:21;;;;;;;10.63;9.37;;;;;;;-142.65;90.23;50174.75;5115863;28;20176;-70
2022/11/15 02:02:06;;;;;;;8.83;8.23;;;;;;;-142.65;89.82;50170.78;5116274;28;20640;-71
2022/11/15 02:04:52;;;;;;;9.70;8.90;;;;;;;-142.65;89.30;50170.78;5115994;28;20250;-68
2022/11/15 02:07:37;;;;;;;9.67;8.97;;;;;;;-142.65;89.18;50170.78;5115706;28;20200;-68
2022/11/15 02:10:24;;;;;;;9.67;8.77;;;;;;;-142.65;89.04;50170.78;5116252;28;20650;-68
2022/11/15 02:13:09;;;;;;;9.60;7.77;;;;;;;-142.65;89.18;50174.75;5115544;28;20216;-69
2022/11/15 02:16:13;;;;;;;9.40;8.40;;;;;;;-142.65;89.18;50172.78;5115617;28;20681;-68
2022/11/15 02:19:33;;;;;;;11.50;8.73;;;;;;;-142.65;89.20;50174.75;5115762;28;20262;-68
2022/11/15 02:22:41;;;;;;;9.83;8.90;;;;;;;-142.65;89.10;50168.78;5115662;28;20212;-68
2022/11/15 02:26:03;;;;;;;9.10;8.53;;;;;;;-142.65;88.86;50164.81;5115744;28;20288;-68
2022/11/15 02:29:00;;;;;;;9.37;8.57;;;;;;;-142.65;88.88;50164.81;5115532;28;20223;-68
2022/11/15 02:32:12;;;;;;;8.63;7.87;;;;;;;-142.65;88.96;50162.81;5100199;28;20188;-68
2022/11/15 02:35:03;;;;;;;9.20;8.63;;;;;;;-142.65;88.85;50170.78;5115426;28;20207;-68
2022/11/15 02:37:52;;;;;;;8.10;7.70;;;;;;;;;;5115144;28;20176;-68
2022/11/15 02:40:58;;;;;;;9.20;8.33;;;;;;;-142.65;88.80;50176.75;5115045;28;20543;-68
2022/11/15 02:43:59;;;;;;;7.83;7.50;;;;;;;-142.65;88.81;50164.81;5114663;28;20212;-68
2022/11/15 02:47:12;;;;;;;7.10;6.80;;;;;;;-142.65;88.85;50170.78;5115111;28;20205;-68
2022/11/15 02:50:07;;;;;;;7.13;6.83;;;;;;;-142.65;88.90;50168.78;5115123;28;20207;-68
2022/11/15 02:52:52;;;;;;;8.23;7.63;;;;;;;-142.65;89.01;50170.78;5114770;28;20294;-68
2022/11/15 02:55:41;;;;;;;8.83;8.33;;;;;;;-142.65;88.91;50168.78;5115014;28;20222;-68
2022/11/15 02:58:57;;;;;;;7.63;7.03;;;;;;;-142.65;89.00;50162.81;5114726;28;20567;-68
2022/11/15 03:01:48;;;;;;;7.60;7.10;;;;;;;-142.65;88.67;50162.81;5114752;28;20177;-68
2022/11/15 03:04:54;;;;;;;7.73;7.43;;;;;;;-142.65;88.85;50170.78;5114894;28;20179;-68
2022/11/15 03:08:00;;;;;;;8.10;7.70;;;;;;;-142.65;89.09;50168.78;5114474;28;20207;-68
2022/11/15 03:11:05;;;;;;;7.50;7.20;;;;;;;;;;5114764;28;20176;-68
2022/11/15 03:14:14;;;;;;;7.77;7.00;;;;;;;-142.65;88.81;50172.78;5114656;28;20678;-69
2022/11/15 03:17:18;;;;;;;7.10;6.90;;;;;;;-142.65;88.86;50164.81;5114324;28;20200;-68
2022/11/15 03:20:05;;;;;;;9.77;7.40;;;;;;;;;;5114103;28;20234;-68
2022/11/15 03:22:52;;;;;;;7.53;7.17;;;;;;;-142.65;88.84;50174.75;5114564;28;20212;-68
2022/11/15 03:25:41;;;;;;;7.90;7.27;;;;;;;-142.65;88.81;50162.81;5114074;28;20192;-68
2022/11/15 03:28:31;;;;;;;7.50;7.00;;;;;;;;;;5113911;28;20258;-68
2022/11/15 03:34:29;;;;;;;8.10;7.67;;;;;;;-142.65;88.79;50170.78;5114740;28;20226;-68
2022/11/15 03:37:17;;;;;;;8.20;7.80;;;;;;;-142.65;88.82;50164.81;5114437;28;20180;-68
2022/11/15 03:40:03;;;;;;;7.03;6.73;;;;;;;;;;5114157;28;20176;-68
2022/11/15 03:43:20;;;;;;;9.00;7.57;;;;;;;-142.65;88.54;50170.78;5114572;28;20216;-68
2022/11/15 03:46:12;;;;;;;8.50;8.00;;;;;;;;;;5076389;28;20204;-68
2022/11/15 03:49:23;;;;;;;8.53;7.60;;;;;;;-142.65;88.73;50164.81;5114333;28;20252;-68
2022/11/15 03:52:10;;;;;;;7.97;7.30;;;;;;;-142.65;88.70;50172.78;5113945;28;20243;-68
2022/11/15 03:54:56;;;;;;;10.90;8.60;;;;;;;;;;5113969;28;20177;-68
2022/11/15 03:57:41;;;;;;;17.73;9.43;;;;;;;;;;5113953;28;20169;-68
2022/11/15 04:00:26;;;;;;;8.83;8.07;;;;;;;;;;5114471;28;20180;-68
2022/11/15 04:03:11;;;;;;;9.33;8.43;;;;;;;;;;5114005;28;20212;-68
2022/11/15 04:05:55;;;;;;;10.43;8.17;;;;;;;-142.65;88.72;50164.81;5114167;28;20184;-68
2022/11/15 04:08:40;;;;;;;9.37;8.43;;;;;;;;;;5113534;28;20204;-68
2022/11/15 04:11:25;;;;;;;13.63;7.57;;;;;;;;;;5114378;28;20172;-68
2022/11/15 04:14:09;;;;;;;6.90;6.47;;;;;;;;;;5114921;28;20307;-68
2022/11/15 04:16:54;;;;;;;7.23;6.83;;;;;;;-142.65;88.68;50178.75;5117569;28;20277;-68
2022/11/15 04:26:10;;;;;;;8.00;7.30;;;;;;;-142.65;88.34;50170.78;5015584;28;20184;-68
2022/11/15 04:31:58;;;;;;;8.40;7.70;;;;;;;-142.65;88.09;50170.78;5117516;28;20180;-68
2022/11/15 04:34:43;;;;;;;8.10;7.27;;;;;;;-142.65;87.95;50164.81;5117266;28;20179;-69
2022/11/15 04:37:28;;;;;;;8.30;7.80;;;;;;;-142.65;87.85;50170.78;5117745;28;20177;-68
2022/11/15 04:40:13;;;;;;;7.03;6.53;;;;;;;;;;5118020;28;20172;-68
2022/11/15 04:42:58;;;;;;;7.57;7.13;;;;;;;;;;5117628;28;20626;-68
2022/11/15 04:45:48;;;;;;;8.87;6.80;;;;;;;-142.65;87.67;50178.75;5117362;28;20192;-68
2022/11/15 04:48:33;;;;;;;6.77;6.37;;;;;;;-142.65;87.01;50168.78;5116958;28;20204;-68
2022/11/15 04:51:18;;;;;;;6.40;6.20;;;;;;;;;;5117285;28;20543;-68
2022/11/15 04:54:03;;;;;;;7.17;6.77;;;;;;;;;;5117113;28;20318;-68
2022/11/15 04:56:48;;;;;;;6.63;6.30;;;;;;;-142.65;87.23;50170.78;5117409;28;20180;-68
2022/11/15 04:59:32;;;;;;;6.97;6.63;;;;;;;-142.65;87.36;50162.81;5117331;28;20185;-68
2022/11/15 05:02:17;;;;;;;6.30;6.10;;;;;;;-142.65;87.28;50170.78;5117248;28;20261;-68
2022/11/15 05:05:02;;;;;;;7.20;7.00;;;;;;;-142.65;87.05;50174.75;5117257;28;20180;-68
2022/11/15 05:07:46;;;;;;;6.30;5.77;;;;;;;;;;5117174;28;20280;-68
2022/11/15 05:10:31;;;;;;;7.57;6.27;;;;;;;-142.65;87.15;50168.78;5117131;28;20180;-68
2022/11/15 05:13:17;;;;;;;6.10;5.80;;;;;;;-142.65;87.08;50164.81;5116595;28;20258;-68
2022/11/15 05:16:02;;;;;;;20.67;6.77;;;;;;;-142.65;87.16;50170.78;5116890;28;20208;-68
2022/11/15 05:18:51;;;;;;;6.47;5.97;;;;;;;-142.65;86.70;50170.78;5116817;28;20625;-68
2022/11/15 05:21:36;;;;;;;6.40;5.93;;;;;;;-142.65;86.54;50170.78;5117093;28;20176;-68
2022/11/15 05:24:21;;;;;;;6.53;6.20;;;;;;;-142.65;86.87;50168.78;5116882;28;20222;-68
2022/11/15 05:27:05;;;;;;;5.83;5.63;;;;;;;-142.65;86.99;50170.78;5115624;28;20196;-68
2022/11/15 05:29:50;;;;;;;5.73;5.53;;;;;;;-142.65;87.43;50170.78;5116719;28;20700;-68
2022/11/15 05:32:36;;;;;;;5.57;5.40;;;;;;;-142.65;87.65;50172.78;5116584;28;20719;-69
2022/11/15 05:35:34;;;;;;;5.57;5.37;;;;;;;-142.65;88.20;50170.78;5116534;28;20258;-68
2022/11/15 05:38:19;;;;;;;6.30;6.00;;;;;;;-142.65;88.44;50168.78;5116368;28;20173;-68
2022/11/15 05:41:04;;;;;;;8.20;7.37;;;;;;;;;;5116548;28;20707;-68
2022/11/15 05:43:50;;;;;;;7.03;6.73;;;;;;;-142.65;89.37;50170.78;5116653;28;20231;-68
2022/11/15 05:46:35;;;;;;;6.80;6.40;;;;;;;;;;5116638;28;20180;-68
2022/11/15 05:49:24;;;;;;;6.20;5.90;;;;;;;-142.65;90.01;50170.78;5100681;28;20177;-68
2022/11/15 05:52:11;;;;;;;7.43;7.13;;;;;;;-142.65;90.85;50176.75;5115971;28;20585;-68
2022/11/15 05:54:57;;;;;;;5.57;5.27;;;;;;;;;;5115756;28;20549;-68
2022/11/15 05:57:42;;;;;;;7.30;6.73;;;;;;;;;;5116165;28;20176;-69
2022/11/15 06:00:28;;;;;;;6.17;6.07;;;;;;;-142.65;92.82;50168.78;5116177;28;20319;-69
2022/11/15 06:03:14;;;;;;;8.17;6.73;;;;;;;-142.65;92.75;50170.78;5115706;28;20297;-69
2022/11/15 06:05:58;;;;;;;8.33;7.53;;;;;;;-142.65;93.28;50174.75;5116229;28;20184;-69
2022/11/15 06:08:43;;;;;;;7.00;6.80;;;;;;;-142.65;93.64;50170.78;5115747;28;20200;-69
2022/11/15 06:11:28;;;;;;;8.23;7.80;;;;;;;-142.65;93.74;50168.78;5115686;28;20546;-69
2022/11/15 06:14:13;;;;;;;9.13;8.07;;;;;;;-142.65;94.02;50170.78;5115584;28;20312;-70
2022/11/15 06:16:58;;;;;;;7.80;7.30;;;;;;;;;;5115482;28;20586;-70
2022/11/15 06:19:42;;;;;;;9.40;8.63;;;;;;;-142.65;94.42;50178.75;5115510;28;20235;-69
2022/11/15 06:22:27;;;;;;;8.73;8.10;;;;;;;-142.65;94.56;50168.78;5115608;28;20219;-70
2022/11/15 06:25:12;;;;;;;9.57;8.83;;;;;;;-142.65;94.79;50178.75;5115132;28;20182;-69
2022/11/15 06:27:58;;;;;;;9.00;8.30;;;;;;;-142.65;94.77;50168.78;5115457;28;20200;-69
2022/11/15 06:30:43;;;;;;;9.40;8.60;;;;;;;-142.65;94.61;50170.78;5115195;28;20688;-69
2022/11/15 06:33:34;;;;;;;7.47;7.17;;;;;;;-142.65;94.13;50170.78;5115026;28;20216;-69
2022/11/15 06:36:20;;;;;;;8.13;7.50;;;;;;;-142.65;93.88;50170.78;5115306;28;20270;-69
2022/11/15 06:39:05;;;;;;;7.73;7.33;;;;;;;-142.65;93.96;50174.75;5115357;28;20192;-69
2022/11/15 06:41:50;;;;;;;6.90;6.70;;;;;;;-142.65;93.80;50172.78;5115111;28;20207;-69
2022/11/15 06:44:35;;;;;;;8.00;7.60;;;;;;;-142.65;93.80;50180.75;5115280;28;20652;-69
2022/11/15 06:47:20;;;;;;;8.00;7.27;;;;;;;;;;5115364;28;20176;-70
2022/11/15 06:50:05;;;;;;;7.70;7.20;;;;;;;-142.65;93.38;50170.78;5114861;28;20187;-69
2022/11/15 06:52:50;;;;;;;6.03;5.73;;;;;;;;;;5114560;28;20219;-69
2022/11/15 06:55:35;;;;;;;7.83;6.87;;;;;;;-142.65;93.27;50168.78;5115379;28;20204;-69
2022/11/15 06:58:21;;;;;;;7.23;6.83;;;;;;;-142.65;93.42;50170.78;5099383;28;20200;-69
2022/11/15 07:01:09;;;;;;;6.13;6.03;;;;;;;-142.65;93.48;50170.78;5115003;28;20192;-70
2022/11/15 07:03:54;;;;;;;6.50;5.97;;;;;;;-142.65;93.21;50170.78;5114941;28;20281;-69
2022/11/15 07:06:39;;;;;;;7.63;7.03;;;;;;;;;;5114797;28;20188;-69
2022/11/15 07:09:23;;;;;;;8.73;7.83;;;;;;;-142.65;92.99;50174.75;5114897;28;20223;-69
2022/11/15 07:12:08;;;;;;;6.93;6.00;;;;;;;;;;5114527;28;20293;-70
2022/11/15 07:14:53;;;;;;;7.27;6.13;;;;;;;-142.65;92.92;50170.78;5114280;28;20541;-70
2022/11/15 07:17:38;;;;;;;7.97;7.23;;;;;;;;;;5114376;28;20570;-69
2022/11/15 07:20:23;;;;;;;7.93;7.03;;;;;;;-142.65;93.06;50164.81;5114124;28;20553;-69
2022/11/15 07:23:08;;;;;;;6.83;6.20;;;;;;;-142.65;92.51;50168.78;5114418;28;20289;-69
2022/11/15 07:25:52;;;;;;;6.80;6.43;;;;;;;-142.65;92.86;50168.78;5114436;28;20550;-70
2022/11/15 07:28:38;;;;;;;6.77;6.30;;;;;;;-142.65;92.86;50170.78;5114012;28;20215;-70
2022/11/15 07:31:23;;;;;;;6.37;5.87;;;;;;;;;;5114213;28;20191;-69
2022/11/15 07:34:09;;;;;;;6.63;6.23;;;;;;;-142.65;92.03;50164.81;5113821;28;20273;-69
2022/11/15 07:36:54;;;;;;;5.40;5.00;;;;;;;-142.65;91.77;50168.78;5113812;28;20196;-69
2022/11/15 07:39:39;;;;;;;4.70;4.47;;;;;;;;;;5114128;28;20192;-70
2022/11/15 07:45:28;;;;;;;4.20;4.00;;;;;;;-142.65;90.18;50168.78;5113984;28;20195;-69
2022/11/15 07:48:13;;;;;;;5.43;5.13;;;;;;;-142.65;89.76;50172.78;5113515;28;20220;-69
2022/11/15 07:50:58;;;;;;;4.37;4.17;;;;;;;-142.65;88.93;50164.81;5114365;28;20184;-69
2022/11/15 07:53:43;;;;;;;4.97;4.67;;;;;;;-142.65;87.87;50164.81;5114003;28;20286;-69
2022/11/15 07:56:29;;;;;;;5.37;5.17;;;;;;;-142.65;86.77;50170.78;5114174;28;20199;-69
2022/11/15 07:59:14;;;;;;;6.80;5.30;;;;;;;-142.65;86.16;50170.78;5113947;28;20172;-70
2022/11/15 08:01:59;;;;;;;3.67;3.53;;;;;;;-142.65;85.82;50170.78;5114134;28;20180;-70
2022/11/15 08:04:44;;;;;;;3.20;3.20;;;;;;;-142.65;85.46;50168.78;5113815;28;20243;-69
2022/11/15 08:07:30;;;;;;;4.23;4.03;;;;;;;-142.65;85.14;50172.78;5114305;28;20292;-70
2022/11/15 08:10:18;;;;;;;3.80;3.60;;;;;;;-142.65;84.62;50168.78;5114045;28;20196;-69
2022/11/15 08:13:08;;;;;;;3.27;3.17;;;;;;;-142.65;84.07;50164.81;5113424;28;20219;-70
2022/11/15 08:15:57;;;;;;;4.40;4.20;;;;;;;;;;5113718;28;20208;-69
2022/11/15 08:18:42;;;;;;;3.57;3.47;;;;;;;-142.65;84.06;50174.75;5114001;28;20231;-69
2022/11/15 08:21:27;;;;;;;3.67;3.47;;;;;;;-142.65;82.95;50170.78;5113908;28;20221;-69
2022/11/15 08:24:12;;;;;;;3.70;3.50;;;;;;;;;;5113607;28;20713;-69
2022/11/15 08:26:57;;;;;;;3.10;3.00;;;;;;;-142.65;82.37;50174.75;5113664;28;20223;-69
2022/11/15 08:29:45;;;;;;;3.10;3.10;;;;;;;-142.65;82.49;50174.75;5113390;28;20219;-70
2022/11/15 08:32:31;;;;;;;2.90;2.80;;;;;;;-142.65;82.33;50168.78;5114135;28;20566;-70
2022/11/15 08:35:16;;;;;;;2.83;2.73;;;;;;;-142.65;81.59;50168.78;5114202;28;20188;-70
2022/11/15 08:38:01;;;;;;;2.23;2.23;;;;;;;-142.65;80.99;50172.78;5113813;28;20255;-69
2022/11/15 08:40:46;;;;;;;1.80;1.80;;;;;;;-142.65;81.36;50170.78;5113302;28;20296;-69
2022/11/15 08:43:31;;;;;;;2.23;2.23;;;;;;;-142.65;81.83;50174.75;5113690;28;20567;-69
2022/11/15 08:46:18;;;;;;;2.67;2.33;;;;;;;-142.65;81.06;50168.78;5113991;28;20192;-69
2022/11/15 08:49:03;;;;;;;2.03;2.03;;;;;;;;;;5113309;28;20227;-69
2022/11/15 08:51:47;;;;;;;2.07;2.07;;;;;;;;;;5113963;28;20258;-69
2022/11/15 08:54:32;;;;;;;2.77;2.67;;;;;;;-142.65;80.72;50170.78;5113665;28;20184;-69
2022/11/15 08:57:17;;;;;;;2.83;2.83;;;;;;;;;;5113597;28;20185;-70
2022/11/15 09:00:03;;;;;;;2.50;2.50;;;;;;;;;;5114306;28;20538;-70
2022/11/15 09:02:48;;;;;;;2.90;2.90;;;;;;;-142.65;84.30;50178.75;5117211;28;20309;-70
2022/11/15 09:05:35;;;;;;;3.47;3.47;;;;;;;-142.65;84.29;50180.75;5116952;28;20199;-70
2022/11/15 09:08:20;;;;;;;2.80;2.80;;;;;;;-142.65;84.49;50170.78;5116751;28;20204;-70
2022/11/15 09:11:26;;;;;;;2.83;2.83;;;;;;;-142.65;83.98;50164.81;5117269;28;20188;-70
2022/11/15 09:14:12;;;;;;;4.07;3.23;;;;;;;-142.65;83.92;50170.78;5116524;28;20292;-70
2022/11/15 09:16:58;;;;;;;3.30;3.20;;;;;;;-142.65;83.83;50172.78;5116676;28;20559;-70
2022/11/15 09:19:43;;;;;;;3.13;3.13;;;;;;;;;;5117045;28;20262;-70
2022/11/15 09:22:28;;;;;;;3.07;3.07;;;;;;;-142.65;83.21;50170.78;5116883;28;20215;-70
2022/11/15 09:25:13;;;;;;;3.10;2.90;;;;;;;;;;5116879;28;20180;-70
2022/11/15 09:27:58;;;;;;;3.50;3.40;;;;;;;-142.65;82.58;50170.78;5116775;28;20273;-70
2022/11/15 09:30:43;;;;;;;3.13;3.13;;;;;;;-142.65;82.17;50170.78;5116990;28;20268;-70
2022/11/15 09:33:28;;;;;;;2.17;2.17;;;;;;;-142.65;79.58;50168.78;5116413;28;20571;-70
2022/11/15 09:36:14;;;;;;;2.40;2.40;;;;;;;-142.65;78.91;50174.75;5116400;28;20196;-70
2022/11/15 09:39:00;;;;;;;2.37;2.00;;;;;;;;;;5116389;28;20251;-70
2022/11/15 09:42:22;;;;;;;2.23;2.17;;;;;;;-142.65;76.61;50164.81;5116515;28;20185;-70
2022/11/15 09:45:20;;;;;;;1.77;1.77;;;;;;;-142.65;75.65;50170.78;5116557;28;20287;-69
2022/11/15 09:48:35;;;;;;;2.77;2.67;;;;;;;-142.65;75.50;50168.78;5116122;28;20172;-69
2022/11/15 09:51:27;;;;;;;1.83;1.83;;;;;;;-142.65;74.67;50162.81;5084665;28;20208;-70
2022/11/15 09:54:12;;;;;;;3.00;2.13;;;;;;;;;;5115987;28;20205;-70
2022/11/15 09:57:04;;;;;;;1.90;1.90;;;;;;;;;;5115505;28;20177;-69
2022/11/15 09:59:52;;;;;;;2.23;2.07;;;;;;;-142.65;73.00;50180.75;5115549;28;20203;-69
2022/11/15 10:02:30;;;;;;;1.40;1.40;;;;;;;;;;5115544;28;20197;-70
2022/11/15 10:04:59;;;;;;;1.77;1.77;;;;;;;-142.65;71.50;50162.81;5115816;28;20183;-70
2022/11/15 10:08:13;;;;;;;1.73;1.73;;;;;;;-142.65;71.85;50168.78;5116045;28;20285;-70
2022/11/15 10:10:44;;;;;;;1.50;1.50;;;;;;;-142.65;72.41;50170.78;5115330;28;20189;-70
2022/11/15 10:13:23;;;;;;;1.30;1.20;;;;;;;-142.65;70.96;50170.78;5114789;28;20577;-69
2022/11/15 10:15:53;;;;;;;3.87;1.80;;;;;;;-142.65;70.87;50170.78;5115178;28;20608;-70
2022/11/15 10:19:04;;;;;;;1.50;1.50;;;;;;;-142.65;71.01;50170.78;5115473;28;20216;-70
2022/11/15 10:21:54;;;;;;;1.97;1.87;;;;;;;;;;5090278;28;20287;-70
2022/11/15 10:24:25;;;;;;;3.03;1.80;;;;;;;;;;5101949;28;20569;-69
2022/11/15 10:26:51;;;;;;;1.97;1.80;;;;;;;-142.65;70.68;50168.78;5115610;28;20184;-69
2022/11/15 10:29:22;;;;;;;1.70;1.60;;;;;;;-142.65;69.51;50162.81;5114964;28;20227;-69
2022/11/15 10:31:52;;;;;;;1.50;1.50;;;;;;;;;;5115502;28;20252;-69
2022/11/15 10:34:23;;;;;;;1.40;1.40;;;;;;;-142.65;68.85;50178.75;5115206;28;20227;-69
2022/11/15 10:36:56;;;;;;;7.70;1.93;;;;;;;;;;5096711;28;20285;-69
2022/11/15 10:39:23;;;;;;;1.73;1.73;;;;;;;;;;5115186;28;20187;-69
2022/11/15 10:41:50;;;;;;;2.27;2.27;;;;;;;-142.65;69.11;50170.78;5114990;28;20604;-69
2022/11/15 10:44:18;;;;;;;2.27;2.03;;;;;;;-142.65;68.65;50168.78;5115224;28;20185;-69
2022/11/15 10:47:20;;;;;;;1.70;1.60;;;;;;;-142.65;67.08;50170.78;5115010;28;20193;-69
2022/11/15 10:50:24;;;;;;;1.43;1.43;;;;;;;-142.65;66.56;50168.78;5114589;28;20576;-69
2022/11/15 10:52:51;;;;;;;1.67;1.57;;;;;;;-142.65;67.17;50176.75;5114856;28;20215;-70
2022/11/15 10:55:17;;;;;;;1.73;1.57;;;;;;;-142.65;67.87;50168.78;5114424;28;20181;-70
2022/11/15 10:57:49;;;;;;;2.37;2.27;;;;;;;;;;5114415;28;20260;-70
2022/11/15 11:00:19;;;;;;;2.03;2.03;;;;;;;-142.65;65.93;50160.81;5114736;28;20176;-70
2022/11/15 11:03:20;;;;;;;3.70;1.97;;;;;;;-142.65;64.47;50168.78;5096279;28;20271;-69
2022/11/15 11:05:47;;;;;;;2.33;2.23;;;;;;;-142.65;64.27;50172.78;5114416;28;20552;-69
2022/11/15 11:08:13;;;;;;;2.93;2.83;;;;;;;-142.65;63.98;50170.78;5114229;28;20264;-69
2022/11/15 11:10:52;;;;;;;1.87;1.87;;;;;;;-142.65;63.38;50170.78;5114224;28;20207;-69
2022/11/15 11:13:28;;;;;;;2.37;1.90;;;;;;;;;;5114255;28;20618;-69
2022/11/15 11:16:13;;;;;;;1.73;1.67;;;;;;;-142.65;63.85;50170.78;5114088;28;20284;-69
2022/11/15 11:19:00;;;;;;;2.27;2.20;;;;;;;-142.65;63.02;50164.81;5114178;28;20193;-69
2022/11/15 11:21:45;;;;;;;1.83;1.83;;;;;;;;;;5114360;28;20200;-69
2022/11/15 11:24:18;;;;;;;1.50;1.50;;;;;;;;;;5113683;28;20243;-69
2022/11/15 11:26:57;;;;;;;1.47;1.47;;;;;;;-142.65;61.44;50164.81;5114496;28;20173;-70
2022/11/15 11:29:53;;;;;;;1.50;1.50;;;;;;;-142.65;61.52;50162.81;5114460;28;20287;-70
2022/11/15 11:32:30;;;;;;;1.90;1.90;;;;;;;-142.65;61.71;50162.81;5114158;28;20201;-70
2022/11/15 11:35:17;;;;;;;1.83;1.73;;;;;;;-142.65;61.82;50170.78;5114418;28;20259;-70
2022/11/15 11:37:55;;;;;;;2.10;2.00;;;;;;;-142.65;60.61;50168.78;5114187;28;20175;-70
2022/11/15 11:40:40;;;;;;;1.23;1.23;;;;;;;-142.65;60.45;50170.78;5114422;28;20180;-70
2022/11/15 11:43:23;;;;;;;2.13;2.00;;;;;;;-142.65;59.13;50164.81;5114266;28;20209;-70
2022/11/15 11:45:58;;;;;;;2.00;2.00;;;;;;;;;;5114271;28;20566;-71
2022/11/15 11:48:37;;;;;;;1.67;1.67;;;;;;;-142.65;58.94;50168.78;5113625;28;20177;-70
2022/11/15 11:51:22;;;;;;;1.60;1.60;;;;;;;;;;5095478;28;20272;-70
2022/11/15 11:54:00;;;;;;;1.97;1.97;;;;;;;-142.65;60.05;50168.78;5113820;28;20264;-71
2022/11/15 11:56:33;;;;;;;1.90;1.70;;;;;;;-142.65;58.25;50174.75;5113965;28;20719;-71
2022/11/15 11:59:17;;;;;;;2.27;2.10;;;;;;;;;;5114124;28;20630;-70
2022/11/15 12:01:44;;;;;;;10.80;1.97;;;;;;;-142.65;58.13;50168.78;5113868;28;20262;-71
2022/11/15 12:04:18;;;;;;;2.47;2.43;;;;;;;-142.65;57.95;50170.78;5113435;28;20695;-70
2022/11/15 12:07:03;;;;;;;2.10;1.90;;;;;;;-142.65;56.94;50170.78;5114167;28;20262;-70
2022/11/15 12:09:42;;;;;;;5.40;1.20;;;;;;;;;;5095253;28;20213;-71
2022/11/15 12:12:11;;;;;;;1.10;1.10;;;;;;;-142.65;56.91;50164.81;5113554;28;20177;-70
2022/11/15 12:15:04;;;;;;;1.47;1.47;;;;;;;-142.65;57.46;50168.78;5113309;28;20264;-69
2022/11/15 12:17:31;;;;;;;1.87;1.87;;;;;;;-142.65;56.99;50182.72;5102524;28;20205;-70
2022/11/15 12:20:07;;;;;;;1.50;1.40;;;;;;;-142.65;57.07;50168.78;5113374;28;20177;-70
2022/11/15 12:22:46;;;;;;;1.20;1.20;;;;;;;;;;5113310;28;20207;-69
2022/11/15 12:25:21;;;;;;;1.50;1.30;;;;;;;;;;5113432;28;20188;-70
2022/11/15 12:27:50;;;;;;;4.23;2.27;;;;;;;;;;5114001;28;20180;-70
2022/11/15 12:30:21;;;;;;;1.60;1.60;;;;;;;-142.65;57.31;50168.78;5113819;28;20312;-69
2022/11/15 12:33:01;;;;;;;1.90;1.90;;;;;;;-142.65;57.23;50168.78;5113240;28;20296;-69
2022/11/15 12:35:39;;;;;;;1.43;1.30;;;;;;;-142.65;56.60;50170.78;5115148;28;20207;-69
2022/11/15 12:38:10;;;;;;;1.37;1.37;;;;;;;-142.65;57.18;50170.78;5117270;28;20178;-70
2022/11/15 12:40:38;;;;;;;1.10;1.10;;;;;;;;;;5117164;28;20166;-70
2022/11/15 12:43:24;;;;;;;1.60;1.60;;;;;;;-142.65;56.34;50168.78;5117048;28;20204;-70
2022/11/15 12:45:50;;;;;;;4.73;1.00;;;;;;;;;;5117151;28;20189;-69
2022/11/15 12:48:17;;;;;;;3.13;2.00;;;;;;;-142.65;56.91;50170.78;5117282;28;20189;-69
2022/11/15 12:50:55;;;;;;;1.20;1.20;;;;;;;-142.65;55.67;50162.81;5117166;28;20215;-70
2022/11/15 12:53:25;;;;;;;1.30;1.30;;;;;;;-142.65;55.12;50172.78;5117321;28;20687;-69
2022/11/15 12:56:12;;;;;;;1.63;1.53;;;;;;;-142.65;54.34;50172.78;5117122;28;20189;-69
2022/11/15 12:58:39;;;;;;;1.20;1.20;;;;;;;;;;5117158;28;20534;-69
2022/11/15 13:01:07;;;;;;;1.30;1.20;;;;;;;-142.65;54.92;50170.78;5117354;28;20188;-70
2022/11/15 13:03:34;;;;;;;1.60;1.60;;;;;;;-142.65;55.49;50170.78;5116708;28;20208;-69
2022/11/15 13:06:03;;;;;;;1.50;1.50;;;;;;;-142.65;56.02;50168.78;5117223;28;20207;-68
2022/11/15 13:08:43;;;;;;;1.63;1.63;;;;;;;-142.65;55.98;50170.78;5116976;28;20184;-68
2022/11/15 13:11:28;;;;;;;2.33;2.30;;;;;;;;;;5116875;28;20541;-68
2022/11/15 13:13:55;;;;;;;2.40;2.30;;;;;;;-142.65;55.70;50172.78;5116490;28;20244;-69
2022/11/15 13:16:21;;;;;;;1.40;1.40;;;;;;;-142.65;55.59;50168.78;5116406;28;20185;-68
2022/11/15 13:18:54;;;;;;;1.47;1.47;;;;;;;-142.65;56.18;50170.78;5116728;28;20192;-68
2022/11/15 13:24:12;;;;;;;1.17;1.17;;;;;;;;;;5116572;28;20675;-68
2022/11/15 13:26:39;;;;;;;3.50;1.53;;;;;;;-142.65;57.38;50168.78;5116829;28;20185;-68
2022/11/15 13:29:16;;;;;;;1.40;1.40;;;;;;;-142.65;56.94;50168.78;5116038;28;20685;-70
2022/11/15 13:31:43;;;;;;;1.43;1.43;;;;;;;-142.65;57.66;50164.81;5116496;28;20178;-70
2022/11/15 13:34:20;;;;;;;1.27;1.27;;;;;;;;;;5116129;28;20205;-70
2022/11/15 13:37:26;;;;;;;1.33;1.33;;;;;;;;;;5116757;28;20181;-69
2022/11/15 13:39:53;;;;;;;1.03;1.03;;;;;;;-142.65;58.58;50170.78;5116302;28;20595;-68